createdAt,value
2022-09-15T00:02:16.567Z,21.71
2022-09-15T00:04:43.473Z,21.66
2022-09-15T00:07:11.091Z,21.58
2022-09-15T00:09:37.858Z,21.60
2022-09-15T00:12:04.838Z,21.58
2022-09-15T00:14:31.692Z,21.59
2022-09-15T00:16:58.570Z,21.58
2022-09-15T00:19:25.368Z,21.62
2022-09-15T00:21:52.166Z,21.62
2022-09-15T00:24:19.189Z,21.56
2022-09-15T00:26:45.917Z,21.49
2022-09-15T00:29:12.756Z,21.39
2022-09-15T00:31:39.572Z,21.39
2022-09-15T00:34:07.221Z,21.30
2022-09-15T00:36:34.398Z,21.24
2022-09-15T00:39:01.321Z,21.30
2022-09-15T00:41:28.183Z,21.29
2022-09-15T00:44:25.560Z,21.18
2022-09-15T00:47:17.722Z,21.23
2022-09-15T00:49:46.357Z,21.17
2022-09-15T00:52:35.800Z,21.25
2022-09-15T00:55:19.514Z,21.23
2022-09-15T00:58:03.496Z,21.18
2022-09-15T01:00:30.524Z,21.17
2022-09-15T01:02:57.653Z,21.14
2022-09-15T01:05:30.901Z,21.21
2022-09-15T01:08:05.836Z,21.18
2022-09-15T01:10:36.830Z,21.21
2022-09-15T01:13:07.399Z,21.13
2022-09-15T01:15:44.704Z,21.15
2022-09-15T01:18:26.732Z,21.17
2022-09-15T01:21:00.484Z,21.13
2022-09-15T01:23:45.958Z,21.18
2022-09-15T01:26:12.570Z,21.18
2022-09-15T01:29:14.431Z,21.17
2022-09-15T01:32:09.856Z,21.07
2022-09-15T01:34:57.294Z,21.08
2022-09-15T01:37:33.143Z,21.05
2022-09-15T01:40:02.041Z,21.06
2022-09-15T01:42:31.722Z,21.07
2022-09-15T01:45:05.914Z,21.03
2022-09-15T01:47:35.865Z,21.00
2022-09-15T01:50:13.825Z,20.99
2022-09-15T01:52:45.106Z,20.95
2022-09-15T01:55:26.794Z,20.91
2022-09-15T01:57:53.606Z,20.90
2022-09-15T02:00:20.685Z,20.91
2022-09-15T02:02:55.763Z,20.83
2022-09-15T02:05:25.368Z,20.82
2022-09-15T02:08:05.217Z,20.78
2022-09-15T02:10:44.052Z,20.77
2022-09-15T02:13:20.914Z,20.75
2022-09-15T02:15:52.577Z,20.75
2022-09-15T02:18:34.850Z,20.71
2022-09-15T02:21:12.761Z,20.70
2022-09-15T02:23:45.429Z,20.71
2022-09-15T02:26:17.624Z,20.72
2022-09-15T02:28:47.764Z,20.72
2022-09-15T02:31:17.996Z,20.71
2022-09-15T02:34:03.390Z,20.64
2022-09-15T02:36:31.194Z,20.61
2022-09-15T02:39:02.694Z,20.59
2022-09-15T02:41:29.580Z,20.57
2022-09-15T02:43:56.326Z,20.54
2022-09-15T02:46:23.480Z,20.47
2022-09-15T02:48:50.426Z,20.46
2022-09-15T02:51:18.558Z,20.45
2022-09-15T02:53:46.431Z,20.42
2022-09-15T02:56:13.380Z,20.39
2022-09-15T02:58:40.192Z,20.39
2022-09-15T03:01:08.184Z,20.43
2022-09-15T03:03:36.437Z,20.44
2022-09-15T03:06:16.891Z,20.47
2022-09-15T03:08:43.629Z,20.48
2022-09-15T03:11:12.223Z,20.44
2022-09-15T03:13:40.019Z,20.42
2022-09-15T03:16:11.068Z,20.42
2022-09-15T03:18:39.367Z,20.41
2022-09-15T03:21:08.536Z,20.41
2022-09-15T03:23:35.797Z,20.41
2022-09-15T03:26:03.579Z,20.39
2022-09-15T03:28:30.425Z,20.39
2022-09-15T03:30:57.380Z,20.39
2022-09-15T03:33:24.543Z,20.35
2022-09-15T03:35:52.139Z,20.37
2022-09-15T03:38:19.720Z,20.39
2022-09-15T03:41:07.809Z,20.39
2022-09-15T03:43:35.702Z,20.35
2022-09-15T03:46:04.589Z,20.34
2022-09-15T03:48:33.351Z,20.34
2022-09-15T03:51:00.185Z,20.35
2022-09-15T03:53:26.964Z,20.33
2022-09-15T03:55:53.768Z,20.35
2022-09-15T03:58:20.614Z,20.36
2022-09-15T04:00:47.587Z,20.35
2022-09-15T04:03:14.695Z,20.33
2022-09-15T04:05:42.256Z,20.33
2022-09-15T04:08:12.433Z,20.31
2022-09-15T04:10:40.450Z,20.29
2022-09-15T04:13:07.254Z,20.30
2022-09-15T04:15:34.363Z,20.29
2022-09-15T04:18:01.189Z,20.20
2022-09-15T04:20:28.012Z,20.26
2022-09-15T04:22:54.846Z,20.24
2022-09-15T04:25:21.594Z,20.24
2022-09-15T04:27:48.389Z,20.22
2022-09-15T04:30:15.179Z,20.26
2022-09-15T04:32:41.967Z,20.23
2022-09-15T04:35:09.190Z,20.26
2022-09-15T04:37:35.929Z,20.22
2022-09-15T04:40:03.341Z,20.19
2022-09-15T04:42:31.135Z,20.18
2022-09-15T04:44:58.188Z,20.17
2022-09-15T04:47:24.963Z,20.14
2022-09-15T04:49:51.730Z,20.14
2022-09-15T04:52:18.533Z,20.14
2022-09-15T04:54:45.433Z,20.14
2022-09-15T04:57:12.216Z,20.16
2022-09-15T04:59:39.108Z,20.17
2022-09-15T05:02:06.008Z,20.16
2022-09-15T05:04:33.159Z,20.18
2022-09-15T05:06:59.997Z,20.16
2022-09-15T05:09:29.554Z,20.16
2022-09-15T05:11:56.724Z,20.14
2022-09-15T05:14:23.669Z,20.16
2022-09-15T05:16:50.617Z,20.15
2022-09-15T05:19:17.408Z,20.14
2022-09-15T05:21:44.185Z,20.10
2022-09-15T05:24:10.955Z,20.15
2022-09-15T05:26:37.785Z,20.12
2022-09-15T05:29:04.690Z,20.09
2022-09-15T05:31:34.040Z,20.07
2022-09-15T05:34:05.713Z,20.09
2022-09-15T05:36:33.356Z,20.13
2022-09-15T05:39:01.797Z,20.12
2022-09-15T05:41:29.448Z,20.13
2022-09-15T05:43:57.906Z,20.14
2022-09-15T05:46:29.272Z,20.12
2022-09-15T05:48:58.464Z,20.09
2022-09-15T05:51:25.643Z,20.11
2022-09-15T05:53:52.626Z,20.10
2022-09-15T05:56:20.186Z,20.12
2022-09-15T05:58:48.729Z,20.12
2022-09-15T06:01:24.572Z,20.13
2022-09-15T06:03:51.817Z,20.13
2022-09-15T06:06:19.356Z,20.14
2022-09-15T06:08:51.864Z,20.16
2022-09-15T06:11:23.275Z,20.17
2022-09-15T06:13:50.349Z,20.20
2022-09-15T06:16:19.915Z,20.21
2022-09-15T06:18:48.604Z,20.22
2022-09-15T06:21:16.973Z,20.27
2022-09-15T06:23:47.256Z,20.31
2022-09-15T06:26:18.717Z,20.32
2022-09-15T06:28:50.029Z,20.32
2022-09-15T06:31:17.454Z,20.34
2022-09-15T06:36:31.189Z,20.40
2022-09-15T06:38:58.906Z,20.44
2022-09-15T06:41:26.060Z,20.50
2022-09-15T06:43:53.405Z,20.52
2022-09-15T06:46:23.500Z,20.56
2022-09-15T06:48:51.964Z,20.58
2022-09-15T06:51:20.673Z,20.59
2022-09-15T06:53:47.630Z,20.57
2022-09-15T06:56:19.734Z,20.59
2022-09-15T06:58:50.591Z,20.57
2022-09-15T07:01:26.511Z,20.58
2022-09-15T07:03:53.914Z,20.57
2022-09-15T07:06:21.537Z,20.55
2022-09-15T07:08:49.904Z,20.56
2022-09-15T07:11:18.449Z,20.56
2022-09-15T07:13:45.978Z,20.58
2022-09-15T07:16:13.570Z,20.58
2022-09-15T07:18:43.302Z,20.56
2022-09-15T07:21:13.330Z,20.57
2022-09-15T07:23:40.598Z,20.56
2022-09-15T07:26:28.584Z,20.58
2022-09-15T07:29:01.657Z,20.61
2022-09-15T07:31:31.296Z,20.64
2022-09-15T07:34:02.314Z,20.68
2022-09-15T07:36:29.908Z,20.73
2022-09-15T07:38:57.203Z,20.78
2022-09-15T07:41:29.414Z,20.81
2022-09-15T07:43:58.390Z,20.86
2022-09-15T07:46:27.036Z,20.92
2022-09-15T07:48:57.906Z,20.98
2022-09-15T07:51:25.743Z,21.02
2022-09-15T07:53:53.587Z,21.08
2022-09-15T07:56:21.696Z,21.14
2022-09-15T07:58:49.496Z,21.19
2022-09-15T08:01:17.926Z,21.25
2022-09-15T08:03:48.926Z,21.30
2022-09-15T08:06:21.232Z,21.35
2022-09-15T08:08:49.163Z,21.40
2022-09-15T08:11:20.667Z,21.48
2022-09-15T08:13:49.732Z,21.56
2022-09-15T08:16:19.529Z,21.67
2022-09-15T08:18:47.043Z,21.77
2022-09-15T08:21:16.732Z,21.86
2022-09-15T08:23:43.695Z,21.97
2022-09-15T08:26:14.389Z,22.07
2022-09-15T08:28:42.203Z,22.17
2022-09-15T08:31:11.740Z,22.26
2022-09-15T08:33:41.972Z,22.33
2022-09-15T08:36:12.185Z,22.40
2022-09-15T08:38:44.867Z,22.45
2022-09-15T08:41:21.025Z,22.51
2022-09-15T08:44:17.940Z,22.59
2022-09-15T08:46:49.418Z,22.65
2022-09-15T08:49:50.528Z,22.71
2022-09-15T08:52:31.956Z,22.78
2022-09-15T08:55:04.807Z,22.85
2022-09-15T08:57:31.776Z,22.93
2022-09-15T08:59:59.749Z,23.00
2022-09-15T09:02:38.704Z,23.06
2022-09-15T09:05:29.448Z,23.12
2022-09-15T09:08:34.695Z,23.20
2022-09-15T09:11:15.477Z,23.27
2022-09-15T09:14:00.431Z,23.35
2022-09-15T09:16:33.119Z,23.43
2022-09-15T09:19:08.280Z,23.48
2022-09-15T09:21:49.873Z,23.57
2022-09-15T09:24:28.976Z,23.65
2022-09-15T09:26:56.106Z,23.75
2022-09-15T09:29:36.557Z,23.86
2022-09-15T09:32:04.442Z,23.97
2022-09-15T09:34:50.570Z,24.03
2022-09-15T09:37:17.499Z,24.08
2022-09-15T09:39:44.315Z,24.16
2022-09-15T09:42:16.891Z,24.24
2022-09-15T09:44:44.047Z,24.31
2022-09-15T09:47:13.218Z,24.39
2022-09-15T09:49:48.700Z,24.47
2022-09-15T09:52:39.308Z,24.52
2022-09-15T09:55:27.183Z,24.58
2022-09-15T09:58:10.800Z,24.62
2022-09-15T10:00:39.842Z,24.69
2022-09-15T10:03:20.344Z,24.76
2022-09-15T10:06:03.508Z,24.78
2022-09-15T10:08:30.416Z,24.80
2022-09-15T10:11:06.845Z,24.81
2022-09-15T10:13:36.225Z,24.79
2022-09-15T10:16:06.130Z,24.82
2022-09-15T10:18:38.900Z,24.77
2022-09-15T10:21:09.698Z,24.72
2022-09-15T10:23:36.597Z,24.69
2022-09-15T10:26:15.318Z,24.69
2022-09-15T10:28:43.992Z,24.67
2022-09-15T10:31:16.128Z,24.66
2022-09-15T10:33:47.937Z,24.65
2022-09-15T10:36:20.535Z,24.66
2022-09-15T10:39:10.948Z,24.68
2022-09-15T10:41:59.036Z,24.68
2022-09-15T10:44:36.957Z,24.68
2022-09-15T10:47:48.149Z,24.70
2022-09-15T10:50:38.429Z,24.71
2022-09-15T10:53:27.160Z,24.71
2022-09-15T10:56:21.446Z,24.76
2022-09-15T10:59:19.061Z,24.77
2022-09-15T11:02:32.582Z,24.78
2022-09-15T11:05:22.051Z,24.78
2022-09-15T11:08:00.836Z,24.75
2022-09-15T11:10:47.428Z,24.75
2022-09-15T11:13:36.259Z,24.74
2022-09-15T11:16:05.974Z,24.77
2022-09-15T11:18:53.072Z,24.75
2022-09-15T11:21:38.039Z,24.72
2022-09-15T11:24:23.497Z,24.70
2022-09-15T11:26:57.290Z,24.68
2022-09-15T11:29:33.908Z,24.66
2022-09-15T11:32:09.856Z,24.64
2022-09-15T11:34:46.892Z,24.60
2022-09-15T11:37:19.214Z,24.60
2022-09-15T11:40:06.477Z,24.59
2022-09-15T11:42:45.356Z,24.56
2022-09-15T11:45:21.586Z,24.55
2022-09-15T11:47:53.859Z,24.52
2022-09-15T11:50:24.989Z,24.48
2022-09-15T11:53:01.865Z,24.45
2022-09-15T11:55:49.282Z,24.45
2022-09-15T11:58:22.469Z,24.37
2022-09-15T12:00:55.373Z,24.29
2022-09-15T12:03:39.176Z,24.19
2022-09-15T12:06:22.378Z,24.03
2022-09-15T12:09:01.263Z,23.91
2022-09-15T12:11:31.243Z,23.78
2022-09-15T12:13:59.935Z,23.62
2022-09-15T12:16:28.520Z,23.47
2022-09-15T12:19:11.993Z,23.36
2022-09-15T12:21:47.036Z,23.26
2022-09-15T12:24:38.159Z,23.22
2022-09-15T12:27:05.009Z,23.12
2022-09-15T12:29:42.055Z,23.06
2022-09-15T12:32:18.655Z,22.99
2022-09-15T12:35:28.361Z,22.92
2022-09-15T12:37:57.740Z,22.85
2022-09-15T12:40:30.285Z,22.82
2022-09-15T12:42:57.705Z,22.81
2022-09-15T12:45:27.498Z,22.85
2022-09-15T12:48:04.162Z,22.84
2022-09-15T12:50:34.578Z,22.82
2022-09-15T12:53:11.809Z,22.73
2022-09-15T12:55:50.055Z,22.69
2022-09-15T12:58:22.701Z,22.68
2022-09-15T13:01:14.355Z,22.63
2022-09-15T13:06:26.766Z,22.56
2022-09-15T13:09:00.992Z,22.50
2022-09-15T13:11:34.835Z,22.47
2022-09-15T13:14:04.619Z,22.51
2022-09-15T13:16:34.958Z,22.52
2022-09-15T13:19:44.321Z,22.53
2022-09-15T13:22:11.019Z,22.51
2022-09-15T13:24:59.214Z,22.48
2022-09-15T13:27:50.417Z,22.50
2022-09-15T13:30:44.732Z,22.53
2022-09-15T13:40:13.698Z,22.66
2022-09-15T13:43:21.889Z,22.74
2022-09-15T13:46:12.068Z,22.80
2022-09-15T13:49:00.101Z,22.84
2022-09-15T13:51:29.660Z,22.93
2022-09-15T13:54:28.896Z,22.99
2022-09-15T13:57:00.293Z,23.04
2022-09-15T13:59:32.718Z,23.07
2022-09-15T14:02:00.724Z,22.95
2022-09-15T14:04:31.866Z,22.97
2022-09-15T14:07:01.733Z,22.89
2022-09-15T14:09:44.704Z,22.85
2022-09-15T14:12:15.098Z,22.81
2022-09-15T14:14:50.883Z,22.73
2022-09-15T14:17:19.312Z,22.72
2022-09-15T14:19:58.416Z,22.68
2022-09-15T14:22:33.569Z,22.53
2022-09-15T14:25:06.491Z,22.65
2022-09-15T14:27:35.307Z,22.57
2022-09-15T14:30:10.566Z,22.63
2022-09-15T14:32:43.196Z,22.59
2022-09-15T14:35:19.780Z,22.60
2022-09-15T14:37:49.851Z,22.61
2022-09-15T14:40:20.549Z,22.64
2022-09-15T14:42:47.406Z,22.60
2022-09-15T14:48:07.886Z,22.59
2022-09-15T14:50:35.633Z,22.66
2022-09-15T14:53:11.615Z,22.68
2022-09-15T14:55:47.706Z,22.69
2022-09-15T14:58:22.432Z,22.67
2022-09-15T15:01:02.800Z,22.71
2022-09-15T15:03:42.823Z,22.72
2022-09-15T15:06:34.848Z,22.76
2022-09-15T15:09:18.285Z,22.71
2022-09-15T15:11:46.365Z,22.74
2022-09-15T15:14:14.486Z,22.78
2022-09-15T15:16:52.419Z,22.79
2022-09-15T15:19:31.599Z,22.81
2022-09-15T15:22:13.780Z,22.81
2022-09-15T15:24:43.825Z,22.75
2022-09-15T15:27:32.777Z,22.76
2022-09-15T15:30:26.621Z,22.76
2022-09-15T15:32:54.297Z,22.76
2022-09-15T15:35:21.568Z,22.70
2022-09-15T15:37:49.404Z,22.71
2022-09-15T15:40:23.238Z,22.68
2022-09-15T15:43:24.460Z,22.67
2022-09-15T15:45:58.038Z,22.67
2022-09-15T15:48:25.949Z,22.68
2022-09-15T15:50:52.888Z,22.68
2022-09-15T15:53:19.666Z,22.66
2022-09-15T15:55:46.552Z,22.63
2022-09-15T15:58:14.990Z,22.63
2022-09-15T16:00:47.545Z,22.57
2022-09-15T16:03:15.802Z,22.56
2022-09-15T16:05:45.971Z,22.57
2022-09-15T16:08:20.734Z,22.54
2022-09-15T16:10:49.518Z,22.53
2022-09-15T16:13:18.845Z,22.53
2022-09-15T16:15:46.423Z,22.48
2022-09-15T16:18:13.487Z,22.46
2022-09-15T16:20:41.522Z,22.44
2022-09-15T16:23:14.025Z,22.43
2022-09-15T16:26:02.661Z,22.35
2022-09-15T16:28:29.643Z,22.40
2022-09-15T16:30:59.492Z,22.37
2022-09-15T16:33:26.572Z,22.38
2022-09-15T16:36:08.255Z,22.35
2022-09-15T16:38:36.318Z,22.34
2022-09-15T16:41:04.569Z,22.32
2022-09-15T16:43:31.707Z,22.28
2022-09-15T16:45:58.450Z,22.24
2022-09-15T16:48:25.353Z,22.21
2022-09-15T16:53:39.575Z,22.07
2022-09-15T16:56:09.180Z,22.00
2022-09-15T16:58:35.915Z,21.97
2022-09-15T17:01:03.585Z,21.96
2022-09-15T17:03:30.645Z,21.89
2022-09-15T17:06:00.410Z,21.83
2022-09-15T17:08:32.435Z,21.80
2022-09-15T17:11:04.160Z,21.75
2022-09-15T17:13:34.080Z,21.72
2022-09-15T17:16:01.719Z,21.70
2022-09-15T17:18:28.831Z,21.67
2022-09-15T17:20:55.936Z,21.60
2022-09-15T17:23:25.569Z,21.56
2022-09-15T17:25:57.700Z,21.56
2022-09-15T17:28:29.856Z,21.55
2022-09-15T17:31:00.327Z,21.56
2022-09-15T17:33:29.189Z,21.56
2022-09-15T17:35:56.417Z,21.53
2022-09-15T17:38:23.658Z,21.48
2022-09-15T17:40:51.655Z,21.44
2022-09-15T17:43:26.642Z,21.42
2022-09-15T17:45:54.824Z,21.42
2022-09-15T17:48:22.675Z,21.38
2022-09-15T17:50:50.391Z,21.38
2022-09-15T17:53:21.486Z,21.34
2022-09-15T17:55:49.741Z,21.33
2022-09-15T17:58:17.133Z,21.31
2022-09-15T18:00:47.000Z,21.30
2022-09-15T18:03:35.157Z,21.35
2022-09-15T18:06:06.562Z,21.32
2022-09-15T18:08:34.046Z,21.35
2022-09-15T18:11:01.396Z,21.34
2022-09-15T18:13:30.021Z,21.33
2022-09-15T18:15:58.451Z,21.32
2022-09-15T18:18:27.948Z,21.30
2022-09-15T18:20:58.148Z,21.26
2022-09-15T18:23:28.764Z,21.23
2022-09-15T18:25:56.146Z,21.22
2022-09-15T18:28:23.261Z,21.29
2022-09-15T18:30:51.223Z,21.26
2022-09-15T18:33:18.286Z,21.19
2022-09-15T18:35:46.061Z,21.14
2022-09-15T18:38:13.227Z,21.09
2022-09-15T18:40:45.923Z,21.05
2022-09-15T18:43:13.139Z,21.04
2022-09-15T18:45:42.549Z,21.01
2022-09-15T18:48:12.655Z,21.01
2022-09-15T18:50:42.190Z,20.96
2022-09-15T18:53:09.921Z,20.95
2022-09-15T18:55:37.153Z,20.89
2022-09-15T18:58:04.278Z,20.90
2022-09-15T19:00:32.496Z,20.90
2022-09-15T19:03:02.058Z,20.89
2022-09-15T19:05:30.702Z,20.86
2022-09-15T19:07:58.025Z,20.81
2022-09-15T19:10:26.801Z,20.77
2022-09-15T19:12:54.415Z,20.73
2022-09-15T19:15:25.072Z,20.74
2022-09-15T19:17:52.161Z,20.72
2022-09-15T19:20:19.566Z,20.66
2022-09-15T19:22:47.775Z,20.63
2022-09-15T19:25:15.256Z,20.60
2022-09-15T19:27:42.305Z,20.56
2022-09-15T19:30:10.442Z,20.53
2022-09-15T19:32:39.212Z,20.52
2022-09-15T19:35:08.253Z,20.49
2022-09-15T19:37:40.701Z,20.48
2022-09-15T19:40:10.110Z,20.45
2022-09-15T19:42:39.111Z,20.49
2022-09-15T19:45:07.904Z,20.45
2022-09-15T19:47:35.563Z,20.47
2022-09-15T19:50:03.836Z,20.45
2022-09-15T19:52:30.639Z,20.43
2022-09-15T19:54:57.522Z,20.42
2022-09-15T19:57:24.855Z,20.46
2022-09-15T19:59:51.625Z,20.42
2022-09-15T20:02:18.787Z,20.37
2022-09-15T20:05:04.325Z,20.35
2022-09-15T20:07:31.515Z,20.34
2022-09-15T20:09:58.859Z,20.29
2022-09-15T20:12:25.771Z,20.30
2022-09-15T20:14:52.680Z,20.32
2022-09-15T20:17:19.388Z,20.28
2022-09-15T20:19:46.175Z,20.28
2022-09-15T20:22:12.978Z,20.27
2022-09-15T20:24:40.284Z,20.26
2022-09-15T20:27:08.915Z,20.23
2022-09-15T20:29:35.696Z,20.21
2022-09-15T20:32:02.602Z,20.18
2022-09-15T20:34:29.335Z,20.16
2022-09-15T20:36:56.139Z,20.16
2022-09-15T20:39:22.993Z,20.12
2022-09-15T20:41:49.794Z,20.11
2022-09-15T20:44:16.850Z,20.11
2022-09-15T20:46:43.670Z,20.08
2022-09-15T20:49:11.414Z,20.12
2022-09-15T20:51:38.479Z,20.16
2022-09-15T20:54:05.521Z,20.16
2022-09-15T20:56:35.245Z,20.11
2022-09-15T20:59:03.634Z,20.07
2022-09-15T21:01:36.901Z,20.09
2022-09-15T21:04:08.655Z,20.09
2022-09-15T21:06:36.322Z,20.05
2022-09-15T21:09:04.468Z,20.01
2022-09-15T21:11:31.686Z,19.98
2022-09-15T21:13:58.974Z,19.93
2022-09-15T21:16:28.319Z,19.93
2022-09-15T21:18:57.176Z,19.92
2022-09-15T21:21:26.786Z,19.90
2022-09-15T21:23:56.483Z,19.89
2022-09-15T21:26:26.161Z,19.88
2022-09-15T21:28:54.733Z,19.89
2022-09-15T21:31:24.917Z,19.88
2022-09-15T21:33:52.801Z,19.85
2022-09-15T21:36:22.258Z,19.86
2022-09-15T21:38:53.648Z,19.87
2022-09-15T21:41:23.175Z,19.79
2022-09-15T21:43:55.042Z,19.77
2022-09-15T21:46:24.789Z,19.76
2022-09-15T21:48:51.884Z,19.70
2022-09-15T21:51:24.749Z,19.73
2022-09-15T21:53:56.882Z,19.72
2022-09-15T21:56:24.646Z,19.68
2022-09-15T21:58:51.427Z,19.64
2022-09-15T22:01:26.718Z,19.62
2022-09-15T22:04:05.694Z,19.62
2022-09-15T22:06:35.787Z,19.59
2022-09-15T22:09:05.629Z,19.60
2022-09-15T22:11:33.232Z,19.59
2022-09-15T22:14:01.926Z,19.53
2022-09-15T22:16:28.978Z,19.49
2022-09-15T22:18:56.000Z,19.48
2022-09-15T22:21:25.963Z,19.50
2022-09-15T22:23:55.949Z,19.46
2022-09-15T22:26:25.893Z,19.38
2022-09-15T22:28:53.299Z,19.31
2022-09-15T22:31:21.771Z,19.29
2022-09-15T22:33:48.593Z,19.28
2022-09-15T22:36:29.740Z,19.29
2022-09-15T22:39:04.276Z,19.23
2022-09-15T22:41:34.093Z,19.16
2022-09-15T22:44:01.190Z,19.15
2022-09-15T22:46:28.114Z,19.11
2022-09-15T22:48:55.405Z,19.10
2022-09-15T22:51:22.300Z,19.06
2022-09-15T22:53:52.372Z,19.00
2022-09-15T22:56:21.955Z,19.00
2022-09-15T22:58:49.902Z,18.99
2022-09-15T23:01:21.871Z,18.99
2022-09-15T23:03:57.211Z,18.98
2022-09-15T23:06:25.704Z,18.98
2022-09-15T23:08:54.919Z,18.98
2022-09-15T23:11:22.697Z,18.97
2022-09-15T23:13:49.876Z,18.95
2022-09-15T23:16:17.313Z,18.95
2022-09-15T23:18:44.711Z,18.91
2022-09-15T23:21:12.460Z,18.88
2022-09-15T23:23:41.079Z,18.86
2022-09-15T23:26:10.315Z,18.87
2022-09-15T23:28:39.030Z,18.91
2022-09-15T23:31:07.140Z,18.89
2022-09-15T23:33:34.422Z,18.84
2022-09-15T23:36:02.804Z,18.87
2022-09-15T23:38:29.867Z,18.84
2022-09-15T23:40:57.066Z,18.84
2022-09-15T23:43:23.801Z,18.84
2022-09-15T23:45:51.349Z,18.81
2022-09-15T23:48:18.218Z,18.79
2022-09-15T23:50:45.238Z,18.80
2022-09-15T23:53:12.906Z,18.76
2022-09-15T23:55:39.783Z,18.78
2022-09-15T23:58:06.813Z,18.77
